sensor_id;sensor_type;location;lat;lon;timestamp;P1;durP1;ratioP1;P2;durP2;ratioP2
44116;SDS011;29781;49.480;8.512;2024-03-02T00:00:06;28.13;;;16.80;;
44116;SDS011;29781;49.480;8.512;2024-03-02T00:02:41;25.90;;;14.90;;
44116;SDS011;29781;49.480;8.512;2024-03-02T00:05:10;24.05;;;14.70;;
44116;SDS011;29781;49.480;8.512;2024-03-02T00:07:37;26.77;;;15.95;;
44116;SDS011;29781;49.480;8.512;2024-03-02T00:10:07;25.77;;;15.48;;
44116;SDS011;29781;49.480;8.512;2024-03-02T00:12:35;28.95;;;16.23;;
44116;SDS011;29781;49.480;8.512;2024-03-02T00:15:01;26.08;;;14.88;;
44116;SDS011;29781;49.480;8.512;2024-03-02T00:17:29;21.38;;;13.55;;
44116;SDS011;29781;49.480;8.512;2024-03-02T00:19:55;23.70;;;14.82;;
44116;SDS011;29781;49.480;8.512;2024-03-02T00:22:20;23.25;;;14.70;;
44116;SDS011;29781;49.480;8.512;2024-03-02T00:24:46;23.92;;;15.02;;
44116;SDS011;29781;49.480;8.512;2024-03-02T00:27:12;24.30;;;14.68;;
44116;SDS011;29781;49.480;8.512;2024-03-02T00:29:40;25.15;;;14.40;;
44116;SDS011;29781;49.480;8.512;2024-03-02T00:32:12;21.88;;;13.80;;
44116;SDS011;29781;49.480;8.512;2024-03-02T00:34:38;20.58;;;14.52;;
44116;SDS011;29781;49.480;8.512;2024-03-02T00:37:04;20.35;;;13.52;;
44116;SDS011;29781;49.480;8.512;2024-03-02T00:39:30;21.80;;;13.57;;
44116;SDS011;29781;49.480;8.512;2024-03-02T00:41:56;20.17;;;11.95;;
44116;SDS011;29781;49.480;8.512;2024-03-02T00:44:22;17.23;;;12.32;;
44116;SDS011;29781;49.480;8.512;2024-03-02T00:46:51;20.20;;;13.18;;
44116;SDS011;29781;49.480;8.512;2024-03-02T00:49:21;19.80;;;13.05;;
44116;SDS011;29781;49.480;8.512;2024-03-02T00:51:49;21.00;;;12.63;;
44116;SDS011;29781;49.480;8.512;2024-03-02T00:54:18;20.35;;;12.57;;
44116;SDS011;29781;49.480;8.512;2024-03-02T00:56:49;19.92;;;12.52;;
44116;SDS011;29781;49.480;8.512;2024-03-02T00:59:15;19.65;;;12.10;;
44116;SDS011;29781;49.480;8.512;2024-03-02T01:01:41;20.05;;;11.90;;
44116;SDS011;29781;49.480;8.512;2024-03-02T01:04:07;17.52;;;11.65;;
44116;SDS011;29781;49.480;8.512;2024-03-02T01:06:33;18.67;;;11.50;;
44116;SDS011;29781;49.480;8.512;2024-03-02T01:09:03;18.35;;;12.18;;
44116;SDS011;29781;49.480;8.512;2024-03-02T01:11:29;17.85;;;11.75;;
44116;SDS011;29781;49.480;8.512;2024-03-02T01:13:55;16.75;;;11.90;;
44116;SDS011;29781;49.480;8.512;2024-03-02T01:16:20;19.63;;;12.20;;
44116;SDS011;29781;49.480;8.512;2024-03-02T01:18:46;18.00;;;11.20;;
44116;SDS011;29781;49.480;8.512;2024-03-02T01:21:12;17.60;;;11.75;;
44116;SDS011;29781;49.480;8.512;2024-03-02T01:23:37;20.30;;;11.38;;
44116;SDS011;29781;49.480;8.512;2024-03-02T01:26:03;19.88;;;13.13;;
44116;SDS011;29781;49.480;8.512;2024-03-02T01:28:28;24.08;;;14.50;;
44116;SDS011;29781;49.480;8.512;2024-03-02T01:30:54;21.30;;;14.32;;
44116;SDS011;29781;49.480;8.512;2024-03-02T01:33:19;25.73;;;14.73;;
44116;SDS011;29781;49.480;8.512;2024-03-02T01:35:46;22.33;;;14.52;;
44116;SDS011;29781;49.480;8.512;2024-03-02T01:38:12;26.52;;;14.90;;
44116;SDS011;29781;49.480;8.512;2024-03-02T01:40:38;22.67;;;14.77;;
44116;SDS011;29781;49.480;8.512;2024-03-02T01:43:06;25.10;;;14.90;;
44116;SDS011;29781;49.480;8.512;2024-03-02T01:45:33;24.65;;;14.85;;
44116;SDS011;29781;49.480;8.512;2024-03-02T01:48:00;25.13;;;13.25;;
44116;SDS011;29781;49.480;8.512;2024-03-02T01:50:26;21.75;;;13.15;;
44116;SDS011;29781;49.480;8.512;2024-03-02T01:52:53;20.60;;;13.05;;
44116;SDS011;29781;49.480;8.512;2024-03-02T01:55:20;19.42;;;12.98;;
44116;SDS011;29781;49.480;8.512;2024-03-02T01:57:46;23.42;;;13.43;;
44116;SDS011;29781;49.480;8.512;2024-03-02T02:00:12;22.08;;;13.73;;
44116;SDS011;29781;49.480;8.512;2024-03-02T02:02:39;20.88;;;12.82;;
44116;SDS011;29781;49.480;8.512;2024-03-02T02:05:04;21.63;;;14.48;;
44116;SDS011;29781;49.480;8.512;2024-03-02T02:07:30;19.73;;;12.27;;
44116;SDS011;29781;49.480;8.512;2024-03-02T02:09:56;22.13;;;13.07;;
44116;SDS011;29781;49.480;8.512;2024-03-02T02:12:22;20.02;;;12.90;;
44116;SDS011;29781;49.480;8.512;2024-03-02T02:14:48;20.38;;;12.77;;
44116;SDS011;29781;49.480;8.512;2024-03-02T02:17:17;22.17;;;12.38;;
44116;SDS011;29781;49.480;8.512;2024-03-02T02:19:42;19.45;;;12.25;;
44116;SDS011;29781;49.480;8.512;2024-03-02T02:22:08;19.85;;;12.10;;
44116;SDS011;29781;49.480;8.512;2024-03-02T02:24:40;16.77;;;11.48;;
44116;SDS011;29781;49.480;8.512;2024-03-02T02:27:07;18.48;;;12.43;;
44116;SDS011;29781;49.480;8.512;2024-03-02T02:29:33;18.20;;;11.93;;
44116;SDS011;29781;49.480;8.512;2024-03-02T02:31:58;18.10;;;11.27;;
44116;SDS011;29781;49.480;8.512;2024-03-02T02:34:24;19.15;;;12.90;;
44116;SDS011;29781;49.480;8.512;2024-03-02T02:36:49;18.25;;;11.75;;
44116;SDS011;29781;49.480;8.512;2024-03-02T02:39:15;19.23;;;12.23;;
44116;SDS011;29781;49.480;8.512;2024-03-02T02:41:43;19.73;;;12.63;;
44116;SDS011;29781;49.480;8.512;2024-03-02T02:44:09;18.25;;;11.73;;
44116;SDS011;29781;49.480;8.512;2024-03-02T02:46:37;20.23;;;11.65;;
44116;SDS011;29781;49.480;8.512;2024-03-02T02:49:03;20.23;;;12.25;;
44116;SDS011;29781;49.480;8.512;2024-03-02T02:51:29;19.60;;;12.10;;
44116;SDS011;29781;49.480;8.512;2024-03-02T02:53:54;19.95;;;11.35;;
44116;SDS011;29781;49.480;8.512;2024-03-02T02:56:20;18.92;;;11.80;;
44116;SDS011;29781;49.480;8.512;2024-03-02T02:58:46;23.35;;;13.90;;
44116;SDS011;29781;49.480;8.512;2024-03-02T03:01:11;21.92;;;12.82;;
44116;SDS011;29781;49.480;8.512;2024-03-02T03:03:37;21.55;;;13.05;;
44116;SDS011;29781;49.480;8.512;2024-03-02T03:06:02;20.60;;;13.82;;
44116;SDS011;29781;49.480;8.512;2024-03-02T03:08:28;18.75;;;12.32;;
44116;SDS011;29781;49.480;8.512;2024-03-02T03:10:54;21.80;;;12.90;;
44116;SDS011;29781;49.480;8.512;2024-03-02T03:13:19;20.20;;;13.38;;
44116;SDS011;29781;49.480;8.512;2024-03-02T03:15:45;18.52;;;12.73;;
44116;SDS011;29781;49.480;8.512;2024-03-02T03:18:10;21.65;;;13.57;;
44116;SDS011;29781;49.480;8.512;2024-03-02T03:20:36;20.92;;;13.73;;
44116;SDS011;29781;49.480;8.512;2024-03-02T03:23:01;18.80;;;12.27;;
44116;SDS011;29781;49.480;8.512;2024-03-02T03:25:28;21.05;;;12.68;;
44116;SDS011;29781;49.480;8.512;2024-03-02T03:27:54;19.67;;;12.73;;
44116;SDS011;29781;49.480;8.512;2024-03-02T03:30:20;19.20;;;13.13;;
44116;SDS011;29781;49.480;8.512;2024-03-02T03:32:45;21.70;;;13.70;;
44116;SDS011;29781;49.480;8.512;2024-03-02T03:35:13;22.52;;;13.23;;
44116;SDS011;29781;49.480;8.512;2024-03-02T03:37:40;18.23;;;12.55;;
44116;SDS011;29781;49.480;8.512;2024-03-02T03:40:06;20.95;;;13.60;;
44116;SDS011;29781;49.480;8.512;2024-03-02T03:42:39;20.48;;;13.82;;
44116;SDS011;29781;49.480;8.512;2024-03-02T03:45:05;20.20;;;13.63;;
44116;SDS011;29781;49.480;8.512;2024-03-02T03:47:31;19.80;;;13.50;;
44116;SDS011;29781;49.480;8.512;2024-03-02T03:49:57;20.85;;;13.60;;
44116;SDS011;29781;49.480;8.512;2024-03-02T03:52:23;20.25;;;13.63;;
44116;SDS011;29781;49.480;8.512;2024-03-02T03:54:49;20.80;;;12.95;;
44116;SDS011;29781;49.480;8.512;2024-03-02T03:57:14;19.13;;;12.77;;
44116;SDS011;29781;49.480;8.512;2024-03-02T03:59:40;17.05;;;12.20;;
44116;SDS011;29781;49.480;8.512;2024-03-02T04:02:05;19.92;;;13.32;;
44116;SDS011;29781;49.480;8.512;2024-03-02T04:04:32;19.88;;;13.75;;
44116;SDS011;29781;49.480;8.512;2024-03-02T04:06:58;21.73;;;13.50;;
44116;SDS011;29781;49.480;8.512;2024-03-02T04:09:24;20.67;;;13.43;;
44116;SDS011;29781;49.480;8.512;2024-03-02T04:11:50;19.95;;;13.50;;
44116;SDS011;29781;49.480;8.512;2024-03-02T04:14:16;21.13;;;13.35;;
44116;SDS011;29781;49.480;8.512;2024-03-02T04:16:41;18.83;;;12.85;;
44116;SDS011;29781;49.480;8.512;2024-03-02T04:19:07;20.67;;;13.30;;
44116;SDS011;29781;49.480;8.512;2024-03-02T04:21:32;19.70;;;13.45;;
44116;SDS011;29781;49.480;8.512;2024-03-02T04:23:58;21.17;;;14.18;;
44116;SDS011;29781;49.480;8.512;2024-03-02T04:26:24;20.25;;;12.75;;
44116;SDS011;29781;49.480;8.512;2024-03-02T04:28:52;20.92;;;13.23;;
44116;SDS011;29781;49.480;8.512;2024-03-02T04:31:19;20.95;;;12.63;;
44116;SDS011;29781;49.480;8.512;2024-03-02T04:33:45;20.65;;;12.98;;
44116;SDS011;29781;49.480;8.512;2024-03-02T04:36:10;21.23;;;13.10;;
44116;SDS011;29781;49.480;8.512;2024-03-02T04:38:36;21.30;;;12.82;;
44116;SDS011;29781;49.480;8.512;2024-03-02T04:41:03;19.50;;;12.00;;
44116;SDS011;29781;49.480;8.512;2024-03-02T04:43:29;17.98;;;12.18;;
44116;SDS011;29781;49.480;8.512;2024-03-02T04:45:54;21.85;;;12.82;;
44116;SDS011;29781;49.480;8.512;2024-03-02T04:48:20;19.42;;;12.50;;
44116;SDS011;29781;49.480;8.512;2024-03-02T04:50:47;18.20;;;11.68;;
44116;SDS011;29781;49.480;8.512;2024-03-02T04:53:12;18.40;;;11.98;;
44116;SDS011;29781;49.480;8.512;2024-03-02T04:55:38;16.27;;;11.13;;
44116;SDS011;29781;49.480;8.512;2024-03-02T04:58:06;16.55;;;11.73;;
44116;SDS011;29781;49.480;8.512;2024-03-02T05:00:32;17.33;;;11.85;;
44116;SDS011;29781;49.480;8.512;2024-03-02T05:02:58;22.55;;;12.18;;
44116;SDS011;29781;49.480;8.512;2024-03-02T05:05:23;20.08;;;12.68;;
44116;SDS011;29781;49.480;8.512;2024-03-02T05:07:49;20.30;;;11.63;;
44116;SDS011;29781;49.480;8.512;2024-03-02T05:10:15;19.73;;;12.70;;
44116;SDS011;29781;49.480;8.512;2024-03-02T05:12:40;20.92;;;12.88;;
44116;SDS011;29781;49.480;8.512;2024-03-02T05:15:09;20.40;;;13.43;;
44116;SDS011;29781;49.480;8.512;2024-03-02T05:17:36;19.50;;;12.73;;
44116;SDS011;29781;49.480;8.512;2024-03-02T05:20:03;18.83;;;13.52;;
44116;SDS011;29781;49.480;8.512;2024-03-02T05:22:35;18.98;;;13.15;;
44116;SDS011;29781;49.480;8.512;2024-03-02T05:25:02;21.15;;;13.98;;
44116;SDS011;29781;49.480;8.512;2024-03-02T05:27:28;23.38;;;13.60;;
44116;SDS011;29781;49.480;8.512;2024-03-02T05:29:54;23.10;;;13.48;;
44116;SDS011;29781;49.480;8.512;2024-03-02T05:32:19;19.80;;;13.98;;
44116;SDS011;29781;49.480;8.512;2024-03-02T05:34:45;20.58;;;12.77;;
44116;SDS011;29781;49.480;8.512;2024-03-02T05:37:11;21.23;;;13.30;;
44116;SDS011;29781;49.480;8.512;2024-03-02T05:39:36;18.48;;;12.88;;
44116;SDS011;29781;49.480;8.512;2024-03-02T05:42:02;18.95;;;12.77;;
44116;SDS011;29781;49.480;8.512;2024-03-02T05:44:28;18.77;;;12.55;;
44116;SDS011;29781;49.480;8.512;2024-03-02T05:46:53;19.13;;;12.63;;
44116;SDS011;29781;49.480;8.512;2024-03-02T05:49:19;20.13;;;12.98;;
44116;SDS011;29781;49.480;8.512;2024-03-02T05:51:44;21.15;;;12.82;;
44116;SDS011;29781;49.480;8.512;2024-03-02T05:54:10;20.33;;;14.32;;
44116;SDS011;29781;49.480;8.512;2024-03-02T05:56:35;21.60;;;13.98;;
44116;SDS011;29781;49.480;8.512;2024-03-02T05:59:01;21.88;;;15.30;;
44116;SDS011;29781;49.480;8.512;2024-03-02T06:01:42;23.63;;;15.27;;
44116;SDS011;29781;49.480;8.512;2024-03-02T06:04:08;24.85;;;13.52;;
44116;SDS011;29781;49.480;8.512;2024-03-02T06:06:35;19.70;;;12.20;;
44116;SDS011;29781;49.480;8.512;2024-03-02T06:09:02;18.50;;;12.93;;
44116;SDS011;29781;49.480;8.512;2024-03-02T06:13:58;18.17;;;12.40;;
44116;SDS011;29781;49.480;8.512;2024-03-02T06:16:24;21.13;;;13.25;;
44116;SDS011;29781;49.480;8.512;2024-03-02T06:18:49;22.08;;;14.27;;
44116;SDS011;29781;49.480;8.512;2024-03-02T06:21:15;22.30;;;13.38;;
44116;SDS011;29781;49.480;8.512;2024-03-02T06:23:40;17.55;;;12.65;;
44116;SDS011;29781;49.480;8.512;2024-03-02T06:26:06;21.38;;;14.13;;
44116;SDS011;29781;49.480;8.512;2024-03-02T06:28:31;20.02;;;12.52;;
44116;SDS011;29781;49.480;8.512;2024-03-02T06:30:57;19.60;;;13.50;;
44116;SDS011;29781;49.480;8.512;2024-03-02T06:33:22;20.60;;;13.63;;
44116;SDS011;29781;49.480;8.512;2024-03-02T06:35:48;22.58;;;13.75;;
44116;SDS011;29781;49.480;8.512;2024-03-02T06:38:14;20.55;;;13.02;;
44116;SDS011;29781;49.480;8.512;2024-03-02T06:40:39;20.73;;;14.00;;
44116;SDS011;29781;49.480;8.512;2024-03-02T06:43:05;23.63;;;14.00;;
44116;SDS011;29781;49.480;8.512;2024-03-02T06:45:31;23.20;;;14.45;;
44116;SDS011;29781;49.480;8.512;2024-03-02T06:47:58;20.30;;;13.82;;
44116;SDS011;29781;49.480;8.512;2024-03-02T06:50:24;18.85;;;12.77;;
44116;SDS011;29781;49.480;8.512;2024-03-02T06:52:50;23.58;;;14.25;;
44116;SDS011;29781;49.480;8.512;2024-03-02T06:55:15;20.90;;;12.95;;
44116;SDS011;29781;49.480;8.512;2024-03-02T06:57:40;21.38;;;13.73;;
44116;SDS011;29781;49.480;8.512;2024-03-02T07:00:06;22.60;;;14.00;;
44116;SDS011;29781;49.480;8.512;2024-03-02T07:02:33;20.13;;;13.50;;
44116;SDS011;29781;49.480;8.512;2024-03-02T07:04:59;23.52;;;13.98;;
44116;SDS011;29781;49.480;8.512;2024-03-02T07:07:25;18.92;;;12.82;;
44116;SDS011;29781;49.480;8.512;2024-03-02T07:09:51;25.02;;;14.05;;
44116;SDS011;29781;49.480;8.512;2024-03-02T07:12:16;22.23;;;12.68;;
44116;SDS011;29781;49.480;8.512;2024-03-02T07:14:42;20.67;;;13.35;;
44116;SDS011;29781;49.480;8.512;2024-03-02T07:17:26;19.48;;;13.48;;
44116;SDS011;29781;49.480;8.512;2024-03-02T07:19:51;21.05;;;13.32;;
44116;SDS011;29781;49.480;8.512;2024-03-02T07:22:17;22.90;;;13.73;;
44116;SDS011;29781;49.480;8.512;2024-03-02T07:24:43;24.95;;;13.80;;
44116;SDS011;29781;49.480;8.512;2024-03-02T07:27:10;20.98;;;13.73;;
44116;SDS011;29781;49.480;8.512;2024-03-02T07:29:37;21.65;;;13.30;;
44116;SDS011;29781;49.480;8.512;2024-03-02T07:32:04;19.83;;;14.23;;
44116;SDS011;29781;49.480;8.512;2024-03-02T07:34:30;21.00;;;13.75;;
44116;SDS011;29781;49.480;8.512;2024-03-02T07:36:55;22.42;;;13.88;;
44116;SDS011;29781;49.480;8.512;2024-03-02T07:39:21;22.00;;;14.35;;
44116;SDS011;29781;49.480;8.512;2024-03-02T07:41:47;20.42;;;13.68;;
44116;SDS011;29781;49.480;8.512;2024-03-02T07:44:13;19.42;;;13.82;;
44116;SDS011;29781;49.480;8.512;2024-03-02T07:46:40;21.92;;;14.50;;
44116;SDS011;29781;49.480;8.512;2024-03-02T07:49:06;22.52;;;14.80;;
44116;SDS011;29781;49.480;8.512;2024-03-02T07:51:32;29.45;;;13.73;;
44116;SDS011;29781;49.480;8.512;2024-03-02T07:53:58;23.52;;;14.75;;
44116;SDS011;29781;49.480;8.512;2024-03-02T07:56:23;22.70;;;14.32;;
44116;SDS011;29781;49.480;8.512;2024-03-02T07:58:49;20.20;;;13.45;;
44116;SDS011;29781;49.480;8.512;2024-03-02T08:01:15;21.73;;;13.95;;
44116;SDS011;29781;49.480;8.512;2024-03-02T08:03:40;19.38;;;13.27;;
44116;SDS011;29781;49.480;8.512;2024-03-02T08:06:06;19.98;;;12.35;;
44116;SDS011;29781;49.480;8.512;2024-03-02T08:08:31;19.20;;;12.77;;
44116;SDS011;29781;49.480;8.512;2024-03-02T08:10:57;17.85;;;11.68;;
44116;SDS011;29781;49.480;8.512;2024-03-02T08:13:22;16.08;;;11.50;;
44116;SDS011;29781;49.480;8.512;2024-03-02T08:15:48;16.73;;;10.77;;
44116;SDS011;29781;49.480;8.512;2024-03-02T08:18:14;23.55;;;12.18;;
44116;SDS011;29781;49.480;8.512;2024-03-02T08:20:40;14.98;;;10.98;;
44116;SDS011;29781;49.480;8.512;2024-03-02T08:23:06;13.50;;;10.18;;
44116;SDS011;29781;49.480;8.512;2024-03-02T08:25:33;16.02;;;10.25;;
44116;SDS011;29781;49.480;8.512;2024-03-02T08:27:58;17.90;;;10.73;;
44116;SDS011;29781;49.480;8.512;2024-03-02T08:30:24;18.30;;;11.43;;
44116;SDS011;29781;49.480;8.512;2024-03-02T08:32:49;15.25;;;10.10;;
44116;SDS011;29781;49.480;8.512;2024-03-02T08:35:15;15.13;;;9.50;;
44116;SDS011;29781;49.480;8.512;2024-03-02T08:37:42;13.82;;;9.45;;
44116;SDS011;29781;49.480;8.512;2024-03-02T08:40:08;14.00;;;9.00;;
44116;SDS011;29781;49.480;8.512;2024-03-02T08:42:35;13.73;;;9.02;;
44116;SDS011;29781;49.480;8.512;2024-03-02T08:45:01;15.63;;;10.00;;
44116;SDS011;29781;49.480;8.512;2024-03-02T08:47:27;14.18;;;9.95;;
44116;SDS011;29781;49.480;8.512;2024-03-02T08:49:52;14.43;;;10.25;;
44116;SDS011;29781;49.480;8.512;2024-03-02T08:52:18;14.57;;;9.77;;
44116;SDS011;29781;49.480;8.512;2024-03-02T08:54:43;14.20;;;9.68;;
44116;SDS011;29781;49.480;8.512;2024-03-02T08:57:09;15.07;;;9.82;;
44116;SDS011;29781;49.480;8.512;2024-03-02T08:59:35;17.00;;;10.13;;
44116;SDS011;29781;49.480;8.512;2024-03-02T09:02:00;15.02;;;9.95;;
44116;SDS011;29781;49.480;8.512;2024-03-02T09:04:26;15.95;;;10.05;;
44116;SDS011;29781;49.480;8.512;2024-03-02T09:06:52;14.48;;;10.20;;
44116;SDS011;29781;49.480;8.512;2024-03-02T09:09:18;13.35;;;9.82;;
44116;SDS011;29781;49.480;8.512;2024-03-02T09:11:43;11.90;;;8.50;;
44116;SDS011;29781;49.480;8.512;2024-03-02T09:14:11;14.05;;;9.43;;
44116;SDS011;29781;49.480;8.512;2024-03-02T09:16:36;13.02;;;8.88;;
44116;SDS011;29781;49.480;8.512;2024-03-02T09:19:03;13.98;;;9.30;;
44116;SDS011;29781;49.480;8.512;2024-03-02T09:21:28;16.27;;;9.10;;
44116;SDS011;29781;49.480;8.512;2024-03-02T09:23:55;11.18;;;8.50;;
44116;SDS011;29781;49.480;8.512;2024-03-02T09:26:20;14.35;;;9.18;;
44116;SDS011;29781;49.480;8.512;2024-03-02T09:28:46;12.48;;;8.75;;
44116;SDS011;29781;49.480;8.512;2024-03-02T09:31:11;15.60;;;9.10;;
44116;SDS011;29781;49.480;8.512;2024-03-02T09:33:37;15.75;;;9.52;;
44116;SDS011;29781;49.480;8.512;2024-03-02T09:36:04;13.27;;;9.32;;
44116;SDS011;29781;49.480;8.512;2024-03-02T09:38:31;12.00;;;8.85;;
44116;SDS011;29781;49.480;8.512;2024-03-02T09:40:59;13.00;;;8.93;;
44116;SDS011;29781;49.480;8.512;2024-03-02T09:43:25;13.27;;;8.95;;
44116;SDS011;29781;49.480;8.512;2024-03-02T09:45:51;12.15;;;8.35;;
44116;SDS011;29781;49.480;8.512;2024-03-02T09:48:18;11.73;;;9.20;;
44116;SDS011;29781;49.480;8.512;2024-03-02T09:50:45;11.50;;;9.07;;
44116;SDS011;29781;49.480;8.512;2024-03-02T09:53:11;13.02;;;8.60;;
44116;SDS011;29781;49.480;8.512;2024-03-02T09:55:37;8.55;;;6.82;;
44116;SDS011;29781;49.480;8.512;2024-03-02T09:58:04;10.15;;;6.53;;
44116;SDS011;29781;49.480;8.512;2024-03-02T10:00:29;11.07;;;6.95;;
44116;SDS011;29781;49.480;8.512;2024-03-02T10:02:55;10.50;;;6.95;;
44116;SDS011;29781;49.480;8.512;2024-03-02T10:05:24;11.50;;;7.38;;
44116;SDS011;29781;49.480;8.512;2024-03-02T10:07:58;9.75;;;7.03;;
44116;SDS011;29781;49.480;8.512;2024-03-02T10:10:26;11.05;;;8.05;;
44116;SDS011;29781;49.480;8.512;2024-03-02T10:13:08;9.00;;;7.78;;
44116;SDS011;29781;49.480;8.512;2024-03-02T10:15:35;8.68;;;7.15;;
44116;SDS011;29781;49.480;8.512;2024-03-02T10:18:02;12.20;;;7.47;;
44116;SDS011;29781;49.480;8.512;2024-03-02T10:20:29;11.75;;;7.50;;
44116;SDS011;29781;49.480;8.512;2024-03-02T10:22:55;11.07;;;8.07;;
44116;SDS011;29781;49.480;8.512;2024-03-02T10:25:30;9.73;;;7.07;;
44116;SDS011;29781;49.480;8.512;2024-03-02T10:27:57;9.93;;;7.47;;
44116;SDS011;29781;49.480;8.512;2024-03-02T10:30:26;8.45;;;6.50;;
44116;SDS011;29781;49.480;8.512;2024-03-02T10:32:55;8.57;;;6.53;;
44116;SDS011;29781;49.480;8.512;2024-03-02T10:35:21;9.43;;;7.03;;
44116;SDS011;29781;49.480;8.512;2024-03-02T10:37:51;8.48;;;6.13;;
44116;SDS011;29781;49.480;8.512;2024-03-02T10:40:17;8.48;;;6.47;;
44116;SDS011;29781;49.480;8.512;2024-03-02T10:42:46;8.30;;;6.25;;
44116;SDS011;29781;49.480;8.512;2024-03-02T10:45:12;7.60;;;6.07;;
44116;SDS011;29781;49.480;8.512;2024-03-02T10:47:40;9.48;;;6.68;;
44116;SDS011;29781;49.480;8.512;2024-03-02T10:50:11;7.43;;;5.90;;
44116;SDS011;29781;49.480;8.512;2024-03-02T10:52:37;9.55;;;6.10;;
44116;SDS011;29781;49.480;8.512;2024-03-02T10:55:04;6.05;;;4.85;;
44116;SDS011;29781;49.480;8.512;2024-03-02T10:57:40;7.03;;;5.90;;
44116;SDS011;29781;49.480;8.512;2024-03-02T11:00:11;8.07;;;5.15;;
44116;SDS011;29781;49.480;8.512;2024-03-02T11:02:41;5.95;;;5.00;;
44116;SDS011;29781;49.480;8.512;2024-03-02T11:05:13;4.45;;;3.90;;
44116;SDS011;29781;49.480;8.512;2024-03-02T11:08:01;8.18;;;4.28;;
44116;SDS011;29781;49.480;8.512;2024-03-02T11:10:41;4.30;;;3.40;;
44116;SDS011;29781;49.480;8.512;2024-03-02T11:13:12;4.15;;;3.10;;
44116;SDS011;29781;49.480;8.512;2024-03-02T11:15:39;6.45;;;3.70;;
44116;SDS011;29781;49.480;8.512;2024-03-02T11:18:08;5.97;;;4.10;;
44116;SDS011;29781;49.480;8.512;2024-03-02T11:20:36;14.60;;;5.18;;
44116;SDS011;29781;49.480;8.512;2024-03-02T11:23:05;8.18;;;5.05;;
44116;SDS011;29781;49.480;8.512;2024-03-02T11:25:32;4.22;;;3.40;;
44116;SDS011;29781;49.480;8.512;2024-03-02T11:28:07;8.10;;;5.55;;
44116;SDS011;29781;49.480;8.512;2024-03-02T11:33:03;5.60;;;3.72;;
44116;SDS011;29781;49.480;8.512;2024-03-02T11:35:33;6.10;;;3.83;;
44116;SDS011;29781;49.480;8.512;2024-03-02T11:38:02;3.88;;;2.53;;
44116;SDS011;29781;49.480;8.512;2024-03-02T11:40:28;4.07;;;3.38;;
44116;SDS011;29781;49.480;8.512;2024-03-02T11:42:55;3.17;;;2.88;;
44116;SDS011;29781;49.480;8.512;2024-03-02T11:45:24;4.32;;;2.60;;
44116;SDS011;29781;49.480;8.512;2024-03-02T11:47:54;3.22;;;2.92;;
44116;SDS011;29781;49.480;8.512;2024-03-02T11:52:55;2.33;;;2.13;;
44116;SDS011;29781;49.480;8.512;2024-03-02T11:55:22;1.52;;;1.35;;
44116;SDS011;29781;49.480;8.512;2024-03-02T11:57:50;1.85;;;1.50;;
44116;SDS011;29781;49.480;8.512;2024-03-02T12:00:18;3.10;;;2.35;;
44116;SDS011;29781;49.480;8.512;2024-03-02T12:02:44;4.28;;;2.40;;
44116;SDS011;29781;49.480;8.512;2024-03-02T12:05:14;2.63;;;2.30;;
44116;SDS011;29781;49.480;8.512;2024-03-02T12:07:41;2.20;;;2.00;;
44116;SDS011;29781;49.480;8.512;2024-03-02T12:10:08;3.70;;;2.60;;
44116;SDS011;29781;49.480;8.512;2024-03-02T12:12:34;2.53;;;2.30;;
44116;SDS011;29781;49.480;8.512;2024-03-02T12:14:59;2.90;;;2.60;;
44116;SDS011;29781;49.480;8.512;2024-03-02T12:17:27;2.30;;;2.10;;
44116;SDS011;29781;49.480;8.512;2024-03-02T12:19:52;40.92;;;5.97;;
44116;SDS011;29781;49.480;8.512;2024-03-02T12:22:18;3.17;;;1.90;;
44116;SDS011;29781;49.480;8.512;2024-03-02T12:24:44;2.15;;;1.90;;
44116;SDS011;29781;49.480;8.512;2024-03-02T12:27:12;2.38;;;1.75;;
44116;SDS011;29781;49.480;8.512;2024-03-02T12:29:40;1.70;;;1.38;;
44116;SDS011;29781;49.480;8.512;2024-03-02T12:32:06;1.50;;;1.40;;
44116;SDS011;29781;49.480;8.512;2024-03-02T12:34:32;2.25;;;1.48;;
44116;SDS011;29781;49.480;8.512;2024-03-02T12:36:57;1.13;;;0.70;;
44116;SDS011;29781;49.480;8.512;2024-03-02T12:39:23;1.00;;;0.90;;
44116;SDS011;29781;49.480;8.512;2024-03-02T12:41:49;1.15;;;0.82;;
44116;SDS011;29781;49.480;8.512;2024-03-02T12:44:16;1.00;;;0.80;;
44116;SDS011;29781;49.480;8.512;2024-03-02T12:46:42;1.67;;;0.80;;
44116;SDS011;29781;49.480;8.512;2024-03-02T12:49:08;0.63;;;0.60;;
44116;SDS011;29781;49.480;8.512;2024-03-02T12:51:38;1.00;;;0.70;;
44116;SDS011;29781;49.480;8.512;2024-03-02T12:54:11;2.15;;;0.88;;
44116;SDS011;29781;49.480;8.512;2024-03-02T12:56:36;0.85;;;0.45;;
44116;SDS011;29781;49.480;8.512;2024-03-02T12:59:03;0.98;;;0.60;;
44116;SDS011;29781;49.480;8.512;2024-03-02T13:01:29;0.82;;;0.63;;
44116;SDS011;29781;49.480;8.512;2024-03-02T13:03:56;1.25;;;0.70;;
44116;SDS011;29781;49.480;8.512;2024-03-02T13:06:22;1.00;;;0.60;;
44116;SDS011;29781;49.480;8.512;2024-03-02T13:08:49;1.40;;;0.50;;
44116;SDS011;29781;49.480;8.512;2024-03-02T13:11:15;6.63;;;0.90;;
44116;SDS011;29781;49.480;8.512;2024-03-02T13:13:41;0.65;;;0.50;;
44116;SDS011;29781;49.480;8.512;2024-03-02T13:16:10;0.95;;;0.60;;
44116;SDS011;29781;49.480;8.512;2024-03-02T13:18:36;1.02;;;0.70;;
44116;SDS011;29781;49.480;8.512;2024-03-02T13:21:03;1.50;;;0.75;;
44116;SDS011;29781;49.480;8.512;2024-03-02T13:23:29;0.60;;;0.60;;
44116;SDS011;29781;49.480;8.512;2024-03-02T13:25:56;2.05;;;0.93;;
44116;SDS011;29781;49.480;8.512;2024-03-02T13:28:23;1.45;;;0.70;;
44116;SDS011;29781;49.480;8.512;2024-03-02T13:30:49;0.70;;;0.70;;
44116;SDS011;29781;49.480;8.512;2024-03-02T13:33:15;0.98;;;0.77;;
44116;SDS011;29781;49.480;8.512;2024-03-02T13:35:41;1.10;;;1.00;;
44116;SDS011;29781;49.480;8.512;2024-03-02T13:38:07;2.88;;;1.85;;
44116;SDS011;29781;49.480;8.512;2024-03-02T13:40:32;1.55;;;1.40;;
44116;SDS011;29781;49.480;8.512;2024-03-02T13:43:01;1.63;;;1.40;;
44116;SDS011;29781;49.480;8.512;2024-03-02T13:45:27;2.38;;;1.85;;
44116;SDS011;29781;49.480;8.512;2024-03-02T13:47:53;3.38;;;2.03;;
44116;SDS011;29781;49.480;8.512;2024-03-02T13:50:18;2.72;;;2.50;;
44116;SDS011;29781;49.480;8.512;2024-03-02T13:52:44;2.67;;;2.30;;
44116;SDS011;29781;49.480;8.512;2024-03-02T13:55:10;3.10;;;2.15;;
44116;SDS011;29781;49.480;8.512;2024-03-02T13:57:36;3.00;;;2.70;;
44116;SDS011;29781;49.480;8.512;2024-03-02T14:00:02;4.88;;;2.50;;
44116;SDS011;29781;49.480;8.512;2024-03-02T14:02:28;2.42;;;2.22;;
44116;SDS011;29781;49.480;8.512;2024-03-02T14:04:54;3.15;;;2.72;;
44116;SDS011;29781;49.480;8.512;2024-03-02T14:07:19;3.03;;;2.72;;
44116;SDS011;29781;49.480;8.512;2024-03-02T14:09:45;2.75;;;2.55;;
44116;SDS011;29781;49.480;8.512;2024-03-02T14:12:11;3.80;;;2.63;;
44116;SDS011;29781;49.480;8.512;2024-03-02T14:14:38;3.88;;;2.80;;
44116;SDS011;29781;49.480;8.512;2024-03-02T14:17:04;3.85;;;3.08;;
44116;SDS011;29781;49.480;8.512;2024-03-02T14:19:31;5.05;;;3.35;;
44116;SDS011;29781;49.480;8.512;2024-03-02T14:21:57;2.33;;;2.13;;
44116;SDS011;29781;49.480;8.512;2024-03-02T14:24:22;2.20;;;2.00;;
44116;SDS011;29781;49.480;8.512;2024-03-02T14:26:50;2.53;;;1.65;;
44116;SDS011;29781;49.480;8.512;2024-03-02T14:29:19;1.95;;;1.67;;
44116;SDS011;29781;49.480;8.512;2024-03-02T14:31:45;1.95;;;1.60;;
44116;SDS011;29781;49.480;8.512;2024-03-02T14:34:13;1.98;;;1.45;;